sensor_id;sensor_type;location;lat;lon;timestamp;temperature;humidity
15483;DHT22;7843;50.330;7.312;2024-01-15T00:01:42;-0.60;99.90
15483;DHT22;7843;50.330;7.312;2024-01-15T00:04:10;-0.50;99.90
15483;DHT22;7843;50.330;7.312;2024-01-15T00:06:37;-0.50;99.90
15483;DHT22;7843;50.330;7.312;2024-01-15T00:09:03;-0.50;99.90
15483;DHT22;7843;50.330;7.312;2024-01-15T00:11:30;-0.50;99.90
15483;DHT22;7843;50.330;7.312;2024-01-15T00:13:57;-0.50;99.90
15483;DHT22;7843;50.330;7.312;2024-01-15T00:16:24;-0.40;99.90
15483;DHT22;7843;50.330;7.312;2024-01-15T00:18:50;-0.40;99.90
15483;DHT22;7843;50.330;7.312;2024-01-15T00:21:17;-0.40;99.90
15483;DHT22;7843;50.330;7.312;2024-01-15T00:23:44;-0.30;99.90
15483;DHT22;7843;50.330;7.312;2024-01-15T00:26:11;-0.40;99.90
15483;DHT22;7843;50.330;7.312;2024-01-15T00:28:39;-0.40;99.90
15483;DHT22;7843;50.330;7.312;2024-01-15T00:31:05;-0.40;99.90
15483;DHT22;7843;50.330;7.312;2024-01-15T00:33:32;-0.40;99.90
15483;DHT22;7843;50.330;7.312;2024-01-15T00:35:59;-0.40;99.90
15483;DHT22;7843;50.330;7.312;2024-01-15T00:38:26;-0.40;99.90
15483;DHT22;7843;50.330;7.312;2024-01-15T00:40:52;-0.30;99.90
15483;DHT22;7843;50.330;7.312;2024-01-15T00:43:19;-0.40;99.90
15483;DHT22;7843;50.330;7.312;2024-01-15T00:45:48;-0.40;99.90
15483;DHT22;7843;50.330;7.312;2024-01-15T00:48:15;-0.50;99.90
15483;DHT22;7843;50.330;7.312;2024-01-15T00:50:42;-0.60;99.90
15483;DHT22;7843;50.330;7.312;2024-01-15T00:53:08;-0.60;99.90
15483;DHT22;7843;50.330;7.312;2024-01-15T00:55:35;-0.60;99.90
15483;DHT22;7843;50.330;7.312;2024-01-15T00:58:04;-0.60;99.90
15483;DHT22;7843;50.330;7.312;2024-01-15T01:00:30;-0.60;99.90
15483;DHT22;7843;50.330;7.312;2024-01-15T01:02:57;-0.60;99.90
15483;DHT22;7843;50.330;7.312;2024-01-15T01:05:24;-0.60;99.90
15483;DHT22;7843;50.330;7.312;2024-01-15T01:07:50;-0.60;99.90
15483;DHT22;7843;50.330;7.312;2024-01-15T01:10:17;-0.60;99.90
15483;DHT22;7843;50.330;7.312;2024-01-15T01:12:44;-0.60;99.90
15483;DHT22;7843;50.330;7.312;2024-01-15T01:15:11;-0.70;99.90
15483;DHT22;7843;50.330;7.312;2024-01-15T01:17:38;-0.60;99.90
15483;DHT22;7843;50.330;7.312;2024-01-15T01:20:05;-0.60;99.90
15483;DHT22;7843;50.330;7.312;2024-01-15T01:22:35;-0.60;99.90
15483;DHT22;7843;50.330;7.312;2024-01-15T01:25:02;-0.70;99.90
15483;DHT22;7843;50.330;7.312;2024-01-15T01:27:29;-0.70;99.90
15483;DHT22;7843;50.330;7.312;2024-01-15T01:29:55;-0.70;99.90
15483;DHT22;7843;50.330;7.312;2024-01-15T01:32:22;-0.70;99.90
15483;DHT22;7843;50.330;7.312;2024-01-15T01:34:49;-0.70;99.90
15483;DHT22;7843;50.330;7.312;2024-01-15T01:37:16;-0.70;99.90
15483;DHT22;7843;50.330;7.312;2024-01-15T01:39:43;-0.70;99.90
15483;DHT22;7843;50.330;7.312;2024-01-15T01:42:11;-0.70;99.90
15483;DHT22;7843;50.330;7.312;2024-01-15T01:44:38;-0.70;99.90
15483;DHT22;7843;50.330;7.312;2024-01-15T01:47:05;-0.60;99.90
15483;DHT22;7843;50.330;7.312;2024-01-15T01:49:32;-0.60;99.90
15483;DHT22;7843;50.330;7.312;2024-01-15T01:52:02;-0.60;99.90
15483;DHT22;7843;50.330;7.312;2024-01-15T01:54:32;-0.70;99.90
15483;DHT22;7843;50.330;7.312;2024-01-15T01:56:59;-0.80;99.90
15483;DHT22;7843;50.330;7.312;2024-01-15T01:59:28;-0.80;99.90
15483;DHT22;7843;50.330;7.312;2024-01-15T02:01:57;-0.80;99.90
15483;DHT22;7843;50.330;7.312;2024-01-15T02:04:25;-0.80;99.90
15483;DHT22;7843;50.330;7.312;2024-01-15T02:06:52;-0.80;99.90
15483;DHT22;7843;50.330;7.312;2024-01-15T02:09:19;-0.80;99.90
15483;DHT22;7843;50.330;7.312;2024-01-15T02:11:47;-0.80;99.90
15483;DHT22;7843;50.330;7.312;2024-01-15T02:14:14;-0.80;99.90
15483;DHT22;7843;50.330;7.312;2024-01-15T02:16:41;-0.80;99.90
15483;DHT22;7843;50.330;7.312;2024-01-15T02:19:15;-0.80;99.90
15483;DHT22;7843;50.330;7.312;2024-01-15T02:21:42;-0.80;99.90
15483;DHT22;7843;50.330;7.312;2024-01-15T02:24:09;-0.90;99.90
15483;DHT22;7843;50.330;7.312;2024-01-15T02:26:37;-0.90;99.90
15483;DHT22;7843;50.330;7.312;2024-01-15T02:29:07;-0.90;99.90
15483;DHT22;7843;50.330;7.312;2024-01-15T02:31:37;-1.00;99.90
15483;DHT22;7843;50.330;7.312;2024-01-15T02:34:04;-0.90;99.90
15483;DHT22;7843;50.330;7.312;2024-01-15T02:36:31;-0.90;99.90
15483;DHT22;7843;50.330;7.312;2024-01-15T02:38:58;-0.90;99.90
15483;DHT22;7843;50.330;7.312;2024-01-15T02:41:24;-1.00;99.90
15483;DHT22;7843;50.330;7.312;2024-01-15T02:43:51;-1.00;99.90
15483;DHT22;7843;50.330;7.312;2024-01-15T02:46:18;-0.90;99.90
15483;DHT22;7843;50.330;7.312;2024-01-15T02:48:44;-0.80;99.90
15483;DHT22;7843;50.330;7.312;2024-01-15T02:51:11;-0.80;99.90
15483;DHT22;7843;50.330;7.312;2024-01-15T02:53:39;-0.70;99.90
15483;DHT22;7843;50.330;7.312;2024-01-15T02:56:07;-0.80;99.90
15483;DHT22;7843;50.330;7.312;2024-01-15T02:58:34;-0.70;99.90
15483;DHT22;7843;50.330;7.312;2024-01-15T03:01:00;-0.70;99.90
15483;DHT22;7843;50.330;7.312;2024-01-15T03:03:27;-0.80;99.90
15483;DHT22;7843;50.330;7.312;2024-01-15T03:05:54;-0.80;99.90
15483;DHT22;7843;50.330;7.312;2024-01-15T03:08:21;-0.80;99.90
15483;DHT22;7843;50.330;7.312;2024-01-15T03:10:49;-0.70;99.90
15483;DHT22;7843;50.330;7.312;2024-01-15T03:13:15;-0.70;99.90
15483;DHT22;7843;50.330;7.312;2024-01-15T03:15:43;-0.70;99.90
15483;DHT22;7843;50.330;7.312;2024-01-15T03:18:10;-0.60;99.90
15483;DHT22;7843;50.330;7.312;2024-01-15T03:20:37;-0.60;99.90
15483;DHT22;7843;50.330;7.312;2024-01-15T03:23:03;-0.60;99.90
15483;DHT22;7843;50.330;7.312;2024-01-15T03:25:30;-0.60;99.90
15483;DHT22;7843;50.330;7.312;2024-01-15T03:27:57;-0.60;99.90
15483;DHT22;7843;50.330;7.312;2024-01-15T03:30:23;-0.60;99.90
15483;DHT22;7843;50.330;7.312;2024-01-15T03:32:50;-0.70;99.90
15483;DHT22;7843;50.330;7.312;2024-01-15T03:35:17;-0.70;99.90
15483;DHT22;7843;50.330;7.312;2024-01-15T03:37:44;-0.70;99.90
15483;DHT22;7843;50.330;7.312;2024-01-15T03:40:11;-0.70;99.90
15483;DHT22;7843;50.330;7.312;2024-01-15T03:42:38;-0.70;99.90
15483;DHT22;7843;50.330;7.312;2024-01-15T03:45:05;-0.60;99.90
15483;DHT22;7843;50.330;7.312;2024-01-15T03:47:31;-0.60;99.90
15483;DHT22;7843;50.330;7.312;2024-01-15T03:49:58;-0.50;99.90
15483;DHT22;7843;50.330;7.312;2024-01-15T03:52:25;-0.60;99.90
15483;DHT22;7843;50.330;7.312;2024-01-15T03:54:52;-0.60;99.90
15483;DHT22;7843;50.330;7.312;2024-01-15T03:57:18;-0.60;99.90
15483;DHT22;7843;50.330;7.312;2024-01-15T03:59:45;-0.60;99.90
15483;DHT22;7843;50.330;7.312;2024-01-15T04:02:13;-0.60;99.90
15483;DHT22;7843;50.330;7.312;2024-01-15T04:04:43;-0.60;99.90
15483;DHT22;7843;50.330;7.312;2024-01-15T04:07:10;-0.50;99.90
15483;DHT22;7843;50.330;7.312;2024-01-15T04:09:37;-0.60;99.90
15483;DHT22;7843;50.330;7.312;2024-01-15T04:12:04;-0.60;99.90
15483;DHT22;7843;50.330;7.312;2024-01-15T04:14:31;-0.60;99.90
15483;DHT22;7843;50.330;7.312;2024-01-15T04:16:57;-0.60;99.90
15483;DHT22;7843;50.330;7.312;2024-01-15T04:19:29;-0.60;99.90
15483;DHT22;7843;50.330;7.312;2024-01-15T04:21:55;-0.60;99.90
15483;DHT22;7843;50.330;7.312;2024-01-15T04:24:22;-0.60;99.90
15483;DHT22;7843;50.330;7.312;2024-01-15T04:26:49;-0.60;99.90
15483;DHT22;7843;50.330;7.312;2024-01-15T04:29:16;-0.60;99.90
15483;DHT22;7843;50.330;7.312;2024-01-15T04:31:42;-0.60;99.90
15483;DHT22;7843;50.330;7.312;2024-01-15T04:34:09;-0.60;99.90
15483;DHT22;7843;50.330;7.312;2024-01-15T04:36:40;-0.60;99.90
15483;DHT22;7843;50.330;7.312;2024-01-15T04:39:07;-0.60;99.90
15483;DHT22;7843;50.330;7.312;2024-01-15T04:41:34;-0.60;99.90
15483;DHT22;7843;50.330;7.312;2024-01-15T04:44:01;-0.50;99.90
15483;DHT22;7843;50.330;7.312;2024-01-15T04:46:27;-0.50;99.90
15483;DHT22;7843;50.330;7.312;2024-01-15T04:48:54;-0.50;99.90
15483;DHT22;7843;50.330;7.312;2024-01-15T04:51:21;-0.50;99.90
15483;DHT22;7843;50.330;7.312;2024-01-15T04:53:48;-0.50;99.90
15483;DHT22;7843;50.330;7.312;2024-01-15T04:56:14;-0.50;99.90
15483;DHT22;7843;50.330;7.312;2024-01-15T04:58:41;-0.50;99.90
15483;DHT22;7843;50.330;7.312;2024-01-15T05:01:08;-0.50;99.90
15483;DHT22;7843;50.330;7.312;2024-01-15T05:03:35;-0.50;99.90
15483;DHT22;7843;50.330;7.312;2024-01-15T05:06:02;-0.50;99.90
15483;DHT22;7843;50.330;7.312;2024-01-15T05:08:29;-0.50;99.90
15483;DHT22;7843;50.330;7.312;2024-01-15T05:10:56;-0.50;99.90
15483;DHT22;7843;50.330;7.312;2024-01-15T05:13:22;-0.50;99.90
15483;DHT22;7843;50.330;7.312;2024-01-15T05:15:49;-0.50;99.90
15483;DHT22;7843;50.330;7.312;2024-01-15T05:18:16;-0.50;99.90
15483;DHT22;7843;50.330;7.312;2024-01-15T05:20:43;-0.50;99.90
15483;DHT22;7843;50.330;7.312;2024-01-15T05:23:10;-0.50;99.90
15483;DHT22;7843;50.330;7.312;2024-01-15T05:25:37;-0.50;99.90
15483;DHT22;7843;50.330;7.312;2024-01-15T05:28:06;-0.50;99.90
15483;DHT22;7843;50.330;7.312;2024-01-15T05:30:32;-0.50;99.90
15483;DHT22;7843;50.330;7.312;2024-01-15T05:32:59;-0.40;99.90
15483;DHT22;7843;50.330;7.312;2024-01-15T05:35:27;-0.50;99.90
15483;DHT22;7843;50.330;7.312;2024-01-15T05:37:53;-0.50;99.90
15483;DHT22;7843;50.330;7.312;2024-01-15T05:40:20;-0.50;99.90
15483;DHT22;7843;50.330;7.312;2024-01-15T05:42:47;-0.50;99.90
15483;DHT22;7843;50.330;7.312;2024-01-15T05:45:13;-0.50;99.90
15483;DHT22;7843;50.330;7.312;2024-01-15T05:47:40;-0.50;99.90
15483;DHT22;7843;50.330;7.312;2024-01-15T05:50:08;-0.50;99.90
15483;DHT22;7843;50.330;7.312;2024-01-15T05:52:34;-0.50;99.90
15483;DHT22;7843;50.330;7.312;2024-01-15T05:55:01;-0.50;99.90
15483;DHT22;7843;50.330;7.312;2024-01-15T05:57:28;-0.40;99.90
15483;DHT22;7843;50.330;7.312;2024-01-15T05:59:55;-0.40;99.90
15483;DHT22;7843;50.330;7.312;2024-01-15T06:02:21;-0.40;99.90
15483;DHT22;7843;50.330;7.312;2024-01-15T06:04:48;-0.40;99.90
15483;DHT22;7843;50.330;7.312;2024-01-15T06:07:15;-0.40;99.90
15483;DHT22;7843;50.330;7.312;2024-01-15T06:09:41;-0.50;99.90
15483;DHT22;7843;50.330;7.312;2024-01-15T06:12:08;-0.40;99.90
15483;DHT22;7843;50.330;7.312;2024-01-15T06:14:35;-0.50;99.90
15483;DHT22;7843;50.330;7.312;2024-01-15T06:17:02;-0.50;99.90
15483;DHT22;7843;50.330;7.312;2024-01-15T06:19:29;-0.50;99.90
15483;DHT22;7843;50.330;7.312;2024-01-15T06:21:56;-0.50;99.90
15483;DHT22;7843;50.330;7.312;2024-01-15T06:24:22;-0.40;99.90
15483;DHT22;7843;50.330;7.312;2024-01-15T06:26:49;-0.40;99.90
15483;DHT22;7843;50.330;7.312;2024-01-15T06:29:16;-0.40;99.90
15483;DHT22;7843;50.330;7.312;2024-01-15T06:31:43;-0.40;99.90
15483;DHT22;7843;50.330;7.312;2024-01-15T06:34:09;-0.40;99.90
15483;DHT22;7843;50.330;7.312;2024-01-15T06:36:36;-0.50;99.90
15483;DHT22;7843;50.330;7.312;2024-01-15T06:39:03;-0.40;99.90
15483;DHT22;7843;50.330;7.312;2024-01-15T06:41:30;-0.40;99.90
15483;DHT22;7843;50.330;7.312;2024-01-15T06:43:57;-0.40;99.90
15483;DHT22;7843;50.330;7.312;2024-01-15T06:46:23;-0.40;99.90
15483;DHT22;7843;50.330;7.312;2024-01-15T06:48:50;-0.50;99.90
15483;DHT22;7843;50.330;7.312;2024-01-15T06:51:17;-0.50;99.90
15483;DHT22;7843;50.330;7.312;2024-01-15T06:53:44;-0.50;99.90
15483;DHT22;7843;50.330;7.312;2024-01-15T06:56:10;-0.60;99.90
15483;DHT22;7843;50.330;7.312;2024-01-15T06:58:37;-0.60;99.90
15483;DHT22;7843;50.330;7.312;2024-01-15T07:01:04;-0.50;99.90
15483;DHT22;7843;50.330;7.312;2024-01-15T07:03:31;-0.50;99.90
15483;DHT22;7843;50.330;7.312;2024-01-15T07:05:58;-0.50;99.90
15483;DHT22;7843;50.330;7.312;2024-01-15T07:08:25;-0.60;99.90
15483;DHT22;7843;50.330;7.312;2024-01-15T07:10:51;-0.70;99.90
15483;DHT22;7843;50.330;7.312;2024-01-15T07:13:18;-0.70;99.90
15483;DHT22;7843;50.330;7.312;2024-01-15T07:15:45;-0.60;99.90
15483;DHT22;7843;50.330;7.312;2024-01-15T07:18:12;-0.60;99.90
15483;DHT22;7843;50.330;7.312;2024-01-15T07:20:38;-0.60;99.90
15483;DHT22;7843;50.330;7.312;2024-01-15T07:23:05;-0.70;99.90
15483;DHT22;7843;50.330;7.312;2024-01-15T07:25:32;-0.80;99.90
15483;DHT22;7843;50.330;7.312;2024-01-15T07:27:59;-0.90;99.90
15483;DHT22;7843;50.330;7.312;2024-01-15T07:30:25;-1.00;99.90
15483;DHT22;7843;50.330;7.312;2024-01-15T07:32:52;-1.00;99.90
15483;DHT22;7843;50.330;7.312;2024-01-15T07:35:19;-1.00;99.90
15483;DHT22;7843;50.330;7.312;2024-01-15T07:37:46;-1.00;99.90
15483;DHT22;7843;50.330;7.312;2024-01-15T07:40:13;-1.00;99.90
15483;DHT22;7843;50.330;7.312;2024-01-15T07:42:40;-1.10;99.90
15483;DHT22;7843;50.330;7.312;2024-01-15T07:45:10;-1.00;99.90
15483;DHT22;7843;50.330;7.312;2024-01-15T07:47:37;-0.90;99.90
15483;DHT22;7843;50.330;7.312;2024-01-15T07:50:03;-0.90;99.90
15483;DHT22;7843;50.330;7.312;2024-01-15T07:52:31;-0.90;99.90
15483;DHT22;7843;50.330;7.312;2024-01-15T07:54:57;-0.80;99.90
15483;DHT22;7843;50.330;7.312;2024-01-15T07:57:26;-0.70;99.90
15483;DHT22;7843;50.330;7.312;2024-01-15T07:59:53;-0.70;99.90
15483;DHT22;7843;50.330;7.312;2024-01-15T08:02:19;-0.60;99.90
15483;DHT22;7843;50.330;7.312;2024-01-15T08:04:46;-0.60;99.90
15483;DHT22;7843;50.330;7.312;2024-01-15T08:07:13;-0.60;99.90
15483;DHT22;7843;50.330;7.312;2024-01-15T08:09:40;-0.60;99.90
15483;DHT22;7843;50.330;7.312;2024-01-15T08:12:07;-0.70;99.90
15483;DHT22;7843;50.330;7.312;2024-01-15T08:14:33;-0.70;99.90
15483;DHT22;7843;50.330;7.312;2024-01-15T08:17:00;-0.70;99.90
15483;DHT22;7843;50.330;7.312;2024-01-15T08:19:28;-0.80;99.90
15483;DHT22;7843;50.330;7.312;2024-01-15T08:21:55;-0.80;99.90
15483;DHT22;7843;50.330;7.312;2024-01-15T08:24:21;-0.80;99.90
15483;DHT22;7843;50.330;7.312;2024-01-15T08:26:48;-0.80;99.90
15483;DHT22;7843;50.330;7.312;2024-01-15T08:29:15;-0.80;99.90
15483;DHT22;7843;50.330;7.312;2024-01-15T08:31:42;-0.80;99.90
15483;DHT22;7843;50.330;7.312;2024-01-15T08:34:09;-0.60;99.90
15483;DHT22;7843;50.330;7.312;2024-01-15T08:36:36;-0.60;99.90
15483;DHT22;7843;50.330;7.312;2024-01-15T08:39:03;-0.40;99.90
15483;DHT22;7843;50.330;7.312;2024-01-15T08:41:33;-0.30;99.90
15483;DHT22;7843;50.330;7.312;2024-01-15T08:44:01;-0.20;99.90
15483;DHT22;7843;50.330;7.312;2024-01-15T08:46:29;-0.10;99.90
15483;DHT22;7843;50.330;7.312;2024-01-15T08:48:55;0.00;99.90
15483;DHT22;7843;50.330;7.312;2024-01-15T08:51:22;0.10;99.90
15483;DHT22;7843;50.330;7.312;2024-01-15T08:53:49;0.10;99.90
15483;DHT22;7843;50.330;7.312;2024-01-15T08:56:16;0.10;99.90
15483;DHT22;7843;50.330;7.312;2024-01-15T08:58:42;0.10;99.90
15483;DHT22;7843;50.330;7.312;2024-01-15T09:01:09;0.20;99.90
15483;DHT22;7843;50.330;7.312;2024-01-15T09:03:36;0.20;99.90
15483;DHT22;7843;50.330;7.312;2024-01-15T09:06:03;0.30;99.90
15483;DHT22;7843;50.330;7.312;2024-01-15T09:08:30;0.30;99.90
15483;DHT22;7843;50.330;7.312;2024-01-15T09:11:00;0.30;99.90
15483;DHT22;7843;50.330;7.312;2024-01-15T09:13:29;0.30;99.90
15483;DHT22;7843;50.330;7.312;2024-01-15T09:15:56;0.30;99.90
15483;DHT22;7843;50.330;7.312;2024-01-15T09:18:23;0.30;99.90
15483;DHT22;7843;50.330;7.312;2024-01-15T09:20:49;0.30;99.90
15483;DHT22;7843;50.330;7.312;2024-01-15T09:23:16;0.40;99.90
15483;DHT22;7843;50.330;7.312;2024-01-15T09:25:43;0.40;99.90
15483;DHT22;7843;50.330;7.312;2024-01-15T09:28:10;0.60;99.90
15483;DHT22;7843;50.330;7.312;2024-01-15T09:30:37;0.60;99.90
15483;DHT22;7843;50.330;7.312;2024-01-15T09:33:03;0.60;99.90
15483;DHT22;7843;50.330;7.312;2024-01-15T09:35:30;0.60;99.90
15483;DHT22;7843;50.330;7.312;2024-01-15T09:37:57;0.70;99.90
15483;DHT22;7843;50.330;7.312;2024-01-15T09:40:25;0.70;99.90
15483;DHT22;7843;50.330;7.312;2024-01-15T09:42:54;0.70;99.90
15483;DHT22;7843;50.330;7.312;2024-01-15T09:45:21;0.70;99.90
15483;DHT22;7843;50.330;7.312;2024-01-15T09:47:48;0.80;99.90
15483;DHT22;7843;50.330;7.312;2024-01-15T09:50:15;0.80;99.90
15483;DHT22;7843;50.330;7.312;2024-01-15T09:52:43;0.90;99.90
15483;DHT22;7843;50.330;7.312;2024-01-15T09:55:11;0.90;99.90
15483;DHT22;7843;50.330;7.312;2024-01-15T09:57:39;0.90;99.90
15483;DHT22;7843;50.330;7.312;2024-01-15T10:00:07;1.00;99.90
15483;DHT22;7843;50.330;7.312;2024-01-15T10:02:37;1.00;99.90
15483;DHT22;7843;50.330;7.312;2024-01-15T10:05:04;1.00;99.90
15483;DHT22;7843;50.330;7.312;2024-01-15T10:07:35;0.90;99.90
15483;DHT22;7843;50.330;7.312;2024-01-15T10:10:03;1.00;99.90
15483;DHT22;7843;50.330;7.312;2024-01-15T10:12:30;0.90;99.90
15483;DHT22;7843;50.330;7.312;2024-01-15T10:14:57;1.10;99.90
15483;DHT22;7843;50.330;7.312;2024-01-15T10:17:24;1.30;99.90
15483;DHT22;7843;50.330;7.312;2024-01-15T10:19:53;1.30;99.90
15483;DHT22;7843;50.330;7.312;2024-01-15T10:22:20;1.40;99.90
15483;DHT22;7843;50.330;7.312;2024-01-15T10:24:47;1.50;99.90
15483;DHT22;7843;50.330;7.312;2024-01-15T10:27:14;1.70;99.90
15483;DHT22;7843;50.330;7.312;2024-01-15T10:29:42;1.90;99.90
15483;DHT22;7843;50.330;7.312;2024-01-15T10:32:09;2.00;99.90
15483;DHT22;7843;50.330;7.312;2024-01-15T10:34:42;2.20;99.90
15483;DHT22;7843;50.330;7.312;2024-01-15T10:37:10;2.20;99.90
15483;DHT22;7843;50.330;7.312;2024-01-15T10:39:37;2.40;99.90
15483;DHT22;7843;50.330;7.312;2024-01-15T10:42:04;2.60;99.60
15483;DHT22;7843;50.330;7.312;2024-01-15T10:44:32;2.60;98.70
15483;DHT22;7843;50.330;7.312;2024-01-15T10:46:59;2.60;99.50
15483;DHT22;7843;50.330;7.312;2024-01-15T10:49:27;2.60;99.50
15483;DHT22;7843;50.330;7.312;2024-01-15T10:51:57;2.50;98.60
15483;DHT22;7843;50.330;7.312;2024-01-15T10:54:24;2.50;98.00
15483;DHT22;7843;50.330;7.312;2024-01-15T10:56:51;2.50;98.50
15483;DHT22;7843;50.330;7.312;2024-01-15T10:59:20;2.60;99.10
15483;DHT22;7843;50.330;7.312;2024-01-15T11:01:52;2.50;98.10
15483;DHT22;7843;50.330;7.312;2024-01-15T11:04:21;2.50;98.80
15483;DHT22;7843;50.330;7.312;2024-01-15T11:06:53;2.60;98.80
15483;DHT22;7843;50.330;7.312;2024-01-15T11:09:20;2.60;99.10
15483;DHT22;7843;50.330;7.312;2024-01-15T11:11:48;2.70;98.70
15483;DHT22;7843;50.330;7.312;2024-01-15T11:14:39;2.70;98.40
15483;DHT22;7843;50.330;7.312;2024-01-15T11:17:06;2.60;98.30
15483;DHT22;7843;50.330;7.312;2024-01-15T11:25:14;2.50;97.90
15483;DHT22;7843;50.330;7.312;2024-01-15T11:27:46;2.40;98.20
15483;DHT22;7843;50.330;7.312;2024-01-15T11:30:19;2.30;99.00
15483;DHT22;7843;50.330;7.312;2024-01-15T11:32:46;2.30;99.90
15483;DHT22;7843;50.330;7.312;2024-01-15T11:35:14;2.30;99.90
15483;DHT22;7843;50.330;7.312;2024-01-15T11:40:42;2.40;99.90
15483;DHT22;7843;50.330;7.312;2024-01-15T11:43:10;2.40;99.90
15483;DHT22;7843;50.330;7.312;2024-01-15T11:45:37;2.30;99.90
15483;DHT22;7843;50.330;7.312;2024-01-15T11:48:15;2.20;99.90
15483;DHT22;7843;50.330;7.312;2024-01-15T11:50:49;2.20;99.90
15483;DHT22;7843;50.330;7.312;2024-01-15T11:53:17;2.20;99.90
15483;DHT22;7843;50.330;7.312;2024-01-15T11:55:47;2.10;99.90
15483;DHT22;7843;50.330;7.312;2024-01-15T11:58:17;2.10;99.90
15483;DHT22;7843;50.330;7.312;2024-01-15T12:00:47;2.20;99.40
15483;DHT22;7843;50.330;7.312;2024-01-15T12:03:14;2.30;98.60
15483;DHT22;7843;50.330;7.312;2024-01-15T12:05:41;2.40;97.60
15483;DHT22;7843;50.330;7.312;2024-01-15T12:08:10;2.60;98.10
15483;DHT22;7843;50.330;7.312;2024-01-15T12:10:41;2.80;98.10
15483;DHT22;7843;50.330;7.312;2024-01-15T12:13:15;3.10;97.70
15483;DHT22;7843;50.330;7.312;2024-01-15T12:15:43;3.00;96.90
15483;DHT22;7843;50.330;7.312;2024-01-15T12:18:15;3.00;96.90
15483;DHT22;7843;50.330;7.312;2024-01-15T12:20:43;3.00;96.90
15483;DHT22;7843;50.330;7.312;2024-01-15T12:23:10;3.10;96.80
15483;DHT22;7843;50.330;7.312;2024-01-15T12:25:37;3.10;96.60
15483;DHT22;7843;50.330;7.312;2024-01-15T12:28:05;2.90;96.80
15483;DHT22;7843;50.330;7.312;2024-01-15T12:30:34;2.80;97.00
15483;DHT22;7843;50.330;7.312;2024-01-15T12:33:04;2.70;98.20
15483;DHT22;7843;50.330;7.312;2024-01-15T12:35:33;2.70;98.90
15483;DHT22;7843;50.330;7.312;2024-01-15T12:38:01;2.70;98.20
15483;DHT22;7843;50.330;7.312;2024-01-15T12:40:31;2.80;96.30
15483;DHT22;7843;50.330;7.312;2024-01-15T12:42:58;2.90;97.00
15483;DHT22;7843;50.330;7.312;2024-01-15T12:45:25;3.00;95.20
15483;DHT22;7843;50.330;7.312;2024-01-15T12:47:52;2.90;94.80
15483;DHT22;7843;50.330;7.312;2024-01-15T12:50:23;3.00;94.70
15483;DHT22;7843;50.330;7.312;2024-01-15T12:52:50;3.10;94.90
15483;DHT22;7843;50.330;7.312;2024-01-15T12:55:17;3.00;94.20
15483;DHT22;7843;50.330;7.312;2024-01-15T12:57:43;3.00;93.60
15483;DHT22;7843;50.330;7.312;2024-01-15T13:00:12;3.00;92.50
15483;DHT22;7843;50.330;7.312;2024-01-15T13:02:39;3.10;92.70
15483;DHT22;7843;50.330;7.312;2024-01-15T13:05:11;3.10;93.00
15483;DHT22;7843;50.330;7.312;2024-01-15T13:07:39;3.00;91.90
15483;DHT22;7843;50.330;7.312;2024-01-15T13:10:06;2.90;91.40
15483;DHT22;7843;50.330;7.312;2024-01-15T13:12:34;2.80;91.70
15483;DHT22;7843;50.330;7.312;2024-01-15T13:15:01;2.70;91.50
15483;DHT22;7843;50.330;7.312;2024-01-15T13:17:30;2.70;90.70
15483;DHT22;7843;50.330;7.312;2024-01-15T13:19:57;2.50;90.60
15483;DHT22;7843;50.330;7.312;2024-01-15T13:22:23;2.40;90.20
15483;DHT22;7843;50.330;7.312;2024-01-15T13:24:56;2.20;90.90
15483;DHT22;7843;50.330;7.312;2024-01-15T13:27:22;2.20;91.00
15483;DHT22;7843;50.330;7.312;2024-01-15T13:29:49;2.20;90.90
15483;DHT22;7843;50.330;7.312;2024-01-15T13:32:24;2.50;91.80
15483;DHT22;7843;50.330;7.312;2024-01-15T13:34:52;3.00;90.70
15483;DHT22;7843;50.330;7.312;2024-01-15T13:37:19;3.40;88.70
15483;DHT22;7843;50.330;7.312;2024-01-15T13:39:46;3.10;88.20
15483;DHT22;7843;50.330;7.312;2024-01-15T13:42:13;2.80;88.20
15483;DHT22;7843;50.330;7.312;2024-01-15T13:44:39;2.60;89.50
15483;DHT22;7843;50.330;7.312;2024-01-15T13:47:06;2.50;90.00
15483;DHT22;7843;50.330;7.312;2024-01-15T13:49:33;2.40;90.30
15483;DHT22;7843;50.330;7.312;2024-01-15T13:52:00;2.40;89.80
15483;DHT22;7843;50.330;7.312;2024-01-15T13:54:27;2.30;90.10
15483;DHT22;7843;50.330;7.312;2024-01-15T13:56:56;2.30;89.50
15483;DHT22;7843;50.330;7.312;2024-01-15T13:59:23;2.30;90.10
15483;DHT22;7843;50.330;7.312;2024-01-15T14:01:50;2.40;90.30
15483;DHT22;7843;50.330;7.312;2024-01-15T14:04:16;2.40;90.70
15483;DHT22;7843;50.330;7.312;2024-01-15T14:06:43;2.40;90.10
15483;DHT22;7843;50.330;7.312;2024-01-15T14:09:10;2.40;90.20
15483;DHT22;7843;50.330;7.312;2024-01-15T14:11:37;2.30;90.50
15483;DHT22;7843;50.330;7.312;2024-01-15T14:14:04;2.30;90.30
15483;DHT22;7843;50.330;7.312;2024-01-15T14:16:31;2.30;90.70
15483;DHT22;7843;50.330;7.312;2024-01-15T14:18:57;2.20;90.70
15483;DHT22;7843;50.330;7.312;2024-01-15T14:21:24;2.30;91.20
15483;DHT22;7843;50.330;7.312;2024-01-15T14:23:51;2.30;90.30
15483;DHT22;7843;50.330;7.312;2024-01-15T14:26:17;2.30;90.60
15483;DHT22;7843;50.330;7.312;2024-01-15T14:28:45;2.20;90.70
15483;DHT22;7843;50.330;7.312;2024-01-15T14:31:13;2.10;91.10
15483;DHT22;7843;50.330;7.312;2024-01-15T14:33:40;2.10;92.00
15483;DHT22;7843;50.330;7.312;2024-01-15T14:36:07;2.10;92.40
15483;DHT22;7843;50.330;7.312;2024-01-15T14:38:34;2.20;93.20
15483;DHT22;7843;50.330;7.312;2024-01-15T14:41:01;2.10;93.60
15483;DHT22;7843;50.330;7.312;2024-01-15T14:43:28;2.10;94.20
15483;DHT22;7843;50.330;7.312;2024-01-15T14:45:55;2.00;94.50
15483;DHT22;7843;50.330;7.312;2024-01-15T14:48:21;2.00;94.70
15483;DHT22;7843;50.330;7.312;2024-01-15T14:50:48;2.10;95.20
15483;DHT22;7843;50.330;7.312;2024-01-15T14:53:15;2.00;95.40
15483;DHT22;7843;50.330;7.312;2024-01-15T14:55:41;2.00;95.70
15483;DHT22;7843;50.330;7.312;2024-01-15T14:58:08;2.00;95.90
15483;DHT22;7843;50.330;7.312;2024-01-15T15:00:35;1.90;96.10
15483;DHT22;7843;50.330;7.312;2024-01-15T15:03:02;1.80;96.30
15483;DHT22;7843;50.330;7.312;2024-01-15T15:05:29;1.70;96.70
15483;DHT22;7843;50.330;7.312;2024-01-15T15:07:56;1.70;96.80
15483;DHT22;7843;50.330;7.312;2024-01-15T15:10:22;1.60;97.30
15483;DHT22;7843;50.330;7.312;2024-01-15T15:12:49;1.60;97.80
15483;DHT22;7843;50.330;7.312;2024-01-15T15:15:16;1.60;97.90
15483;DHT22;7843;50.330;7.312;2024-01-15T15:17:44;1.70;98.10
15483;DHT22;7843;50.330;7.312;2024-01-15T15:20:11;1.80;98.40
15483;DHT22;7843;50.330;7.312;2024-01-15T15:22:38;2.00;98.40
15483;DHT22;7843;50.330;7.312;2024-01-15T15:25:05;2.00;98.40
15483;DHT22;7843;50.330;7.312;2024-01-15T15:27:35;1.80;98.90
15483;DHT22;7843;50.330;7.312;2024-01-15T15:30:02;1.80;99.20
15483;DHT22;7843;50.330;7.312;2024-01-15T15:32:30;1.70;99.80
15483;DHT22;7843;50.330;7.312;2024-01-15T15:34:56;1.60;99.90
15483;DHT22;7843;50.330;7.312;2024-01-15T15:37:23;1.40;99.90
15483;DHT22;7843;50.330;7.312;2024-01-15T15:39:50;1.30;99.90
15483;DHT22;7843;50.330;7.312;2024-01-15T15:42:16;1.30;99.90
15483;DHT22;7843;50.330;7.312;2024-01-15T15:44:43;1.20;99.90
15483;DHT22;7843;50.330;7.312;2024-01-15T15:47:13;1.20;99.90
15483;DHT22;7843;50.330;7.312;2024-01-15T15:49:41;1.20;99.90
15483;DHT22;7843;50.330;7.312;2024-01-15T15:52:08;1.20;99.90
15483;DHT22;7843;50.330;7.312;2024-01-15T15:54:35;1.10;99.90
15483;DHT22;7843;50.330;7.312;2024-01-15T15:57:02;1.10;99.90
15483;DHT22;7843;50.330;7.312;2024-01-15T15:59:29;1.10;99.90
15483;DHT22;7843;50.330;7.312;2024-01-15T16:01:56;1.00;99.90